createdAt,value
2022-08-14T00:01:59.473Z,80.19
2022-08-14T00:04:35.217Z,80.41
2022-08-14T00:07:08.513Z,80.54
2022-08-14T00:09:56.147Z,80.91
2022-08-14T00:12:23.653Z,80.60
2022-08-14T00:14:54.931Z,81.25
2022-08-14T00:17:22.698Z,80.17
2022-08-14T00:19:49.548Z,80.71
2022-08-14T00:22:44.702Z,80.86
2022-08-14T00:25:06.979Z,80.80
2022-08-14T00:27:37.740Z,80.34
2022-08-14T00:30:10.949Z,80.94
2022-08-14T00:32:53.122Z,81.53
2022-08-14T00:35:35.743Z,80.98
2022-08-14T00:38:09.956Z,81.84
2022-08-14T00:40:36.682Z,81.68
2022-08-14T00:43:03.497Z,82.21
2022-08-14T00:45:30.655Z,82.03
2022-08-14T00:47:58.053Z,82.65
2022-08-14T00:50:26.886Z,81.70
2022-08-14T00:52:54.775Z,82.32
2022-08-14T00:55:21.792Z,82.22
2022-08-14T00:57:50.074Z,82.03
2022-08-14T01:00:34.212Z,81.74
2022-08-14T01:03:04.768Z,82.67
2022-08-14T01:05:51.195Z,82.35
2022-08-14T01:08:51.649Z,83.25
2022-08-14T01:11:09.871Z,82.94
2022-08-14T01:13:42.748Z,82.82
2022-08-14T01:16:14.792Z,83.49
2022-08-14T01:18:41.785Z,82.44
2022-08-14T01:21:09.236Z,83.51
2022-08-14T01:23:47.081Z,83.41
2022-08-14T01:26:14.734Z,83.90
2022-08-14T01:29:01.890Z,83.24
2022-08-14T01:31:30.447Z,83.38
2022-08-14T01:33:59.598Z,83.58
2022-08-14T01:36:45.499Z,84.25
2022-08-14T01:39:14.615Z,84.00
2022-08-14T01:41:46.807Z,84.25
2022-08-14T01:44:32.044Z,83.70
2022-08-14T01:47:01.443Z,83.73
2022-08-14T01:49:35.370Z,84.34
2022-08-14T01:52:02.624Z,83.63
2022-08-14T01:54:37.873Z,83.54
2022-08-14T01:57:05.892Z,84.20
2022-08-14T01:59:37.623Z,83.90
2022-08-14T02:02:06.478Z,84.11
2022-08-14T02:04:54.612Z,83.67
2022-08-14T02:07:34.683Z,84.73
2022-08-14T02:10:13.284Z,84.61
2022-08-14T02:12:42.599Z,84.57
2022-08-14T02:15:09.537Z,83.43
2022-08-14T02:17:36.161Z,84.79
2022-08-14T02:20:04.729Z,84.59
2022-08-14T02:26:24.179Z,84.74
2022-08-14T02:28:57.844Z,84.85
2022-08-14T02:31:35.997Z,85.18
2022-08-14T02:34:22.117Z,85.18
2022-08-14T02:37:03.422Z,85.67
2022-08-14T02:39:33.322Z,84.30
2022-08-14T02:41:59.896Z,84.15
2022-08-14T02:44:31.137Z,84.00
2022-08-14T02:47:01.524Z,84.94
2022-08-14T02:49:34.019Z,86.44
2022-08-14T02:52:01.208Z,86.17
2022-08-14T02:54:32.479Z,85.38
2022-08-14T02:57:16.013Z,85.98
2022-08-14T02:59:45.861Z,85.37
2022-08-14T03:02:49.553Z,85.04
2022-08-14T03:04:59.492Z,84.21
2022-08-14T03:07:26.086Z,84.41
2022-08-14T03:10:26.438Z,86.22
2022-08-14T03:12:40.049Z,86.38
2022-08-14T03:15:07.119Z,85.41
2022-08-14T03:17:41.074Z,85.55
2022-08-14T03:20:22.369Z,85.51
2022-08-14T03:22:50.954Z,85.51
2022-08-14T03:25:17.656Z,85.24
2022-08-14T03:27:48.503Z,85.92
2022-08-14T03:30:39.872Z,86.27
2022-08-14T03:33:10.496Z,86.32
2022-08-14T03:35:40.252Z,85.67
2022-08-14T03:39:12.601Z,85.96
2022-08-14T03:41:16.126Z,85.45
2022-08-14T03:43:46.275Z,85.91
2022-08-14T03:46:52.508Z,86.27
2022-08-14T03:49:24.403Z,86.46
2022-08-14T03:51:57.566Z,86.79
2022-08-14T03:54:24.792Z,85.75
2022-08-14T03:56:51.390Z,86.14
2022-08-14T03:59:19.498Z,86.39
2022-08-14T04:01:58.154Z,86.91
2022-08-14T04:04:31.473Z,85.67
2022-08-14T04:06:58.986Z,86.02
2022-08-14T04:09:26.659Z,86.32
2022-08-14T04:11:53.677Z,86.96
2022-08-14T04:14:20.445Z,86.89
2022-08-14T04:16:47.054Z,86.35
2022-08-14T04:19:14.089Z,86.19
2022-08-14T04:22:01.907Z,86.51
2022-08-14T04:24:27.421Z,85.95
2022-08-14T04:26:55.678Z,87.26
2022-08-14T04:29:22.427Z,87.31
2022-08-14T04:32:57.439Z,86.98
2022-08-14T04:34:39.136Z,86.79
2022-08-14T04:37:09.046Z,86.50
2022-08-14T04:39:46.210Z,87.34
2022-08-14T04:42:14.200Z,86.91
2022-08-14T04:44:41.029Z,86.50
2022-08-14T04:47:08.599Z,87.01
2022-08-14T04:49:38.451Z,87.97
2022-08-14T04:52:24.908Z,87.13
2022-08-14T04:54:52.280Z,88.04
2022-08-14T04:57:21.196Z,87.52
2022-08-14T04:59:49.486Z,87.06
2022-08-14T05:02:17.777Z,87.57
2022-08-14T05:04:45.349Z,88.32
2022-08-14T05:07:46.713Z,88.27
2022-08-14T05:10:13.053Z,88.38
2022-08-14T05:13:11.321Z,87.68
2022-08-14T05:15:27.068Z,87.59
2022-08-14T05:17:53.941Z,87.50
2022-08-14T05:21:55.107Z,87.59
2022-08-14T05:23:19.645Z,87.90
2022-08-14T05:25:51.723Z,88.06
2022-08-14T05:28:23.784Z,88.24
2022-08-14T05:30:52.801Z,88.24
2022-08-14T05:33:20.148Z,87.47
2022-08-14T05:35:48.453Z,87.44
2022-08-14T05:38:30.582Z,87.80
2022-08-14T05:40:58.016Z,87.38
2022-08-14T05:43:24.650Z,88.37
2022-08-14T05:46:09.905Z,88.71
2022-08-14T05:48:42.826Z,87.86
2022-08-14T05:51:10.289Z,89.08
2022-08-14T05:53:37.125Z,89.15
2022-08-14T05:56:09.238Z,88.90
2022-08-14T05:58:40.979Z,88.93
2022-08-14T06:01:08.376Z,88.25
2022-08-14T06:03:35.216Z,88.82
2022-08-14T06:06:02.765Z,90.42
2022-08-14T06:08:35.799Z,89.80
2022-08-14T06:11:08.134Z,89.92
2022-08-14T06:13:45.756Z,89.16
2022-08-14T06:16:14.893Z,89.49
2022-08-14T06:18:46.620Z,90.11
2022-08-14T06:21:15.051Z,89.55
2022-08-14T06:23:41.685Z,90.17
2022-08-14T06:26:08.622Z,90.15
2022-08-14T06:28:36.590Z,89.31
2022-08-14T06:31:07.152Z,88.93
2022-08-14T06:35:09.702Z,87.82
2022-08-14T06:36:20.565Z,88.74
2022-08-14T06:38:50.306Z,88.50
2022-08-14T06:41:17.986Z,87.58
2022-08-14T06:43:48.720Z,87.53
2022-08-14T06:46:23.028Z,86.51
2022-08-14T06:48:59.798Z,84.79
2022-08-14T06:51:26.509Z,84.76
2022-08-14T06:54:11.858Z,84.61
2022-08-14T06:56:38.829Z,84.25
2022-08-14T06:59:19.539Z,83.57
2022-08-14T07:01:46.980Z,83.77
2022-08-14T07:04:23.713Z,83.91
2022-08-14T07:06:54.766Z,82.66
2022-08-14T07:09:27.843Z,82.52
2022-08-14T07:11:54.823Z,82.51
2022-08-14T07:14:22.986Z,82.67
2022-08-14T07:16:49.680Z,81.89
2022-08-14T07:19:17.829Z,81.14
2022-08-14T07:21:47.960Z,78.36
2022-08-14T07:24:21.836Z,76.83
2022-08-14T07:26:48.980Z,73.52
2022-08-14T07:29:15.699Z,71.88
2022-08-14T07:31:44.450Z,70.00
2022-08-14T07:34:13.205Z,66.00
2022-08-14T07:37:01.184Z,62.35
2022-08-14T07:39:28.255Z,61.88
2022-08-14T07:41:55.025Z,58.16
2022-08-14T07:44:32.739Z,57.16
2022-08-14T07:47:08.351Z,55.97
2022-08-14T07:49:35.087Z,54.57
2022-08-14T07:52:02.276Z,53.91
2022-08-14T07:54:30.664Z,50.53
2022-08-14T07:56:59.919Z,50.28
2022-08-14T07:59:41.294Z,50.48
2022-08-14T08:02:18.937Z,49.57
2022-08-14T08:04:48.345Z,50.53
2022-08-14T08:07:16.079Z,48.68
2022-08-14T08:10:05.150Z,46.70
2022-08-14T08:12:33.683Z,47.05
2022-08-14T08:15:05.460Z,44.87
2022-08-14T08:17:39.135Z,46.38
2022-08-14T08:20:19.989Z,46.04
2022-08-14T08:22:49.961Z,43.06
2022-08-14T08:25:23.572Z,42.82
2022-08-14T08:28:08.559Z,43.17
2022-08-14T08:30:37.928Z,41.93
2022-08-14T08:33:16.870Z,41.06
2022-08-14T08:35:51.353Z,41.42
2022-08-14T08:39:14.551Z,42.00
2022-08-14T08:41:09.639Z,39.33
2022-08-14T08:43:38.381Z,39.42
2022-08-14T08:46:08.035Z,39.02
2022-08-14T08:48:53.935Z,40.42
2022-08-14T08:51:30.658Z,39.42
2022-08-14T08:54:15.371Z,39.24
2022-08-14T08:56:47.020Z,38.83
2022-08-14T08:59:20.383Z,39.94
2022-08-14T09:01:52.340Z,40.44
2022-08-14T09:04:23.134Z,38.36
2022-08-14T09:07:00.379Z,39.04
2022-08-14T09:09:54.412Z,37.71
2022-08-14T09:12:23.065Z,36.64
2022-08-14T09:14:49.687Z,38.17
2022-08-14T09:17:18.123Z,36.33
2022-08-14T09:19:46.014Z,35.82
2022-08-14T09:22:34.844Z,36.60
2022-08-14T09:24:59.335Z,35.44
2022-08-14T09:27:26.283Z,35.28
2022-08-14T09:29:54.251Z,35.82
2022-08-14T09:32:58.300Z,34.40
2022-08-14T09:35:17.428Z,35.64
2022-08-14T09:38:26.111Z,35.68
2022-08-14T09:41:08.812Z,35.06
2022-08-14T09:44:00.191Z,34.75
2022-08-14T09:46:31.534Z,34.87
2022-08-14T09:49:05.164Z,34.59
2022-08-14T09:51:32.592Z,34.24
2022-08-14T09:54:18.579Z,34.69
2022-08-14T09:56:56.516Z,34.07
2022-08-14T09:59:24.286Z,33.15
2022-08-14T10:01:52.935Z,32.89
2022-08-14T10:04:34.418Z,33.63
2022-08-14T10:07:03.462Z,35.25
2022-08-14T10:09:33.352Z,33.36
2022-08-14T10:12:04.649Z,32.64
2022-08-14T10:14:36.003Z,32.99
2022-08-14T10:17:04.763Z,31.69
2022-08-14T10:19:35.724Z,31.91
2022-08-14T10:23:12.744Z,32.09
2022-08-14T10:24:51.443Z,34.07
2022-08-14T10:27:19.577Z,33.69
2022-08-14T10:29:51.081Z,33.50
2022-08-14T10:32:36.188Z,34.36
2022-08-14T10:35:14.113Z,31.14
2022-08-14T10:37:49.053Z,32.51
2022-08-14T10:40:38.711Z,33.26
2022-08-14T10:43:04.224Z,34.96
2022-08-14T10:45:35.820Z,36.43
2022-08-14T10:48:24.374Z,34.53
2022-08-14T10:51:02.581Z,35.49
2022-08-14T10:53:34.714Z,34.88
2022-08-14T10:56:03.584Z,34.92
2022-08-14T10:58:34.220Z,33.56
2022-08-14T11:01:01.321Z,32.53
2022-08-14T11:03:56.193Z,33.94
2022-08-14T11:06:24.530Z,35.77
2022-08-14T11:08:51.656Z,34.66
2022-08-14T11:11:19.623Z,36.62
2022-08-14T11:13:46.335Z,37.44
2022-08-14T11:16:16.108Z,35.51
2022-08-14T11:18:50.819Z,35.02
2022-08-14T11:21:19.283Z,36.07
2022-08-14T11:23:48.123Z,36.32
2022-08-14T11:26:20.188Z,38.51
2022-08-14T11:28:49.921Z,37.05
2022-08-14T11:31:22.379Z,36.97
2022-08-14T11:33:53.518Z,38.65
2022-08-14T11:36:23.514Z,37.49
2022-08-14T11:38:50.174Z,36.74
2022-08-14T11:41:20.591Z,34.91
2022-08-14T11:43:57.689Z,35.70
2022-08-14T11:46:29.946Z,36.67
2022-08-14T11:49:05.594Z,38.63
2022-08-14T11:51:50.732Z,38.61
2022-08-14T11:54:20.102Z,38.86
2022-08-14T11:56:47.113Z,36.60
2022-08-14T11:59:17.523Z,38.35
2022-08-14T12:01:44.199Z,37.38
2022-08-14T12:04:32.209Z,39.49
2022-08-14T12:06:59.316Z,40.37
2022-08-14T12:09:35.695Z,39.37
2022-08-14T12:12:34.998Z,36.80
2022-08-14T12:15:03.287Z,36.52
2022-08-14T12:17:31.685Z,35.81
2022-08-14T12:20:14.895Z,36.14
2022-08-14T12:22:43.552Z,37.31
2022-08-14T12:25:12.820Z,37.46
2022-08-14T12:27:51.798Z,36.02
2022-08-14T12:30:37.691Z,36.61
2022-08-14T12:33:07.390Z,36.49
2022-08-14T12:35:42.548Z,35.26
2022-08-14T12:38:10.388Z,35.81
2022-08-14T12:40:49.353Z,37.11
2022-08-14T12:43:16.730Z,35.15
2022-08-14T12:45:46.518Z,36.12
2022-08-14T12:48:21.148Z,36.63
2022-08-14T12:50:58.142Z,38.04
2022-08-14T12:53:38.243Z,37.83
2022-08-14T12:56:21.655Z,37.89
2022-08-14T12:58:56.831Z,39.15
2022-08-14T13:01:25.114Z,39.34
2022-08-14T13:04:07.399Z,39.18
2022-08-14T13:06:37.992Z,38.69
2022-08-14T13:09:11.247Z,38.54
2022-08-14T13:11:41.717Z,37.59
2022-08-14T13:14:17.156Z,38.17
2022-08-14T13:16:44.898Z,37.45
2022-08-14T13:19:17.020Z,37.77
2022-08-14T13:22:05.367Z,36.59
2022-08-14T13:24:33.444Z,39.20
2022-08-14T13:27:00.328Z,35.89
2022-08-14T13:29:29.700Z,36.43
2022-08-14T13:31:58.213Z,36.41
2022-08-14T13:34:26.360Z,37.78
2022-08-14T13:36:58.895Z,37.91
2022-08-14T13:39:26.453Z,37.35
2022-08-14T13:41:55.602Z,37.30
2022-08-14T13:44:25.468Z,36.84
2022-08-14T13:46:52.842Z,35.29
2022-08-14T13:49:19.479Z,35.67
2022-08-14T13:51:48.997Z,35.78
2022-08-14T13:54:20.094Z,38.75
2022-08-14T13:56:48.249Z,36.93
2022-08-14T13:59:20.228Z,38.00
2022-08-14T14:01:56.113Z,37.94
2022-08-14T14:04:23.568Z,37.06
2022-08-14T14:06:51.444Z,35.64
2022-08-14T14:09:26.355Z,37.58
2022-08-14T14:11:59.386Z,37.74
2022-08-14T14:14:45.013Z,36.79
2022-08-14T14:17:13.605Z,36.35
2022-08-14T14:19:43.540Z,36.88
2022-08-14T14:22:11.115Z,37.83
2022-08-14T14:24:57.775Z,38.82
2022-08-14T14:27:40.390Z,38.54
2022-08-14T14:30:52.248Z,38.82
2022-08-14T14:33:05.172Z,38.25
2022-08-14T14:35:44.794Z,37.60
2022-08-14T14:38:17.109Z,37.90
2022-08-14T14:40:54.290Z,36.93
2022-08-14T14:43:27.665Z,37.72
2022-08-14T14:45:54.874Z,39.07
2022-08-14T14:48:23.204Z,39.67
2022-08-14T14:50:58.204Z,40.04
2022-08-14T14:53:25.680Z,39.88
2022-08-14T14:56:47.471Z,40.85
2022-08-14T14:58:41.684Z,40.56
2022-08-14T15:01:10.535Z,40.14
2022-08-14T15:03:40.501Z,40.66
2022-08-14T15:06:08.315Z,40.18
2022-08-14T15:08:56.269Z,40.28
2022-08-14T15:11:21.968Z,40.26
2022-08-14T15:13:53.188Z,41.04
2022-08-14T15:16:22.633Z,39.74
2022-08-14T15:18:51.539Z,39.69
2022-08-14T15:21:19.852Z,40.98
2022-08-14T15:23:46.535Z,40.85
2022-08-14T15:26:23.814Z,41.16
2022-08-14T15:29:02.811Z,42.50
2022-08-14T15:31:32.479Z,43.68
2022-08-14T15:34:43.613Z,41.18
2022-08-14T15:36:48.471Z,41.58
2022-08-14T15:39:15.626Z,42.12
2022-08-14T15:41:42.312Z,41.91
2022-08-14T15:44:24.757Z,42.29
2022-08-14T15:46:52.522Z,42.33
2022-08-14T15:49:19.576Z,42.66
2022-08-14T15:51:46.191Z,43.25
2022-08-14T15:54:13.262Z,43.41
2022-08-14T15:56:43.740Z,43.91
2022-08-14T15:59:10.533Z,42.47
2022-08-14T16:01:53.811Z,42.12
2022-08-14T16:04:22.165Z,43.17
2022-08-14T16:06:55.588Z,42.87
2022-08-14T16:09:23.041Z,42.78
2022-08-14T16:11:53.550Z,41.92
2022-08-14T16:14:21.774Z,42.50
2022-08-14T16:17:00.339Z,42.18
2022-08-14T16:19:27.566Z,42.11
2022-08-14T16:22:02.255Z,42.93
2022-08-14T16:25:02.801Z,43.33
2022-08-14T16:27:37.242Z,43.54
2022-08-14T16:30:10.758Z,43.91
2022-08-14T16:32:55.113Z,44.24
2022-08-14T16:35:25.066Z,44.39
2022-08-14T16:37:55.742Z,44.76
2022-08-14T16:40:22.992Z,45.53
2022-08-14T16:43:04.547Z,45.52
2022-08-14T16:45:43.398Z,46.77
2022-08-14T16:48:57.124Z,46.46
2022-08-14T16:50:57.477Z,46.38
2022-08-14T16:53:24.149Z,46.48
2022-08-14T16:56:17.207Z,46.05
2022-08-14T16:58:50.227Z,45.28
2022-08-14T17:01:25.186Z,45.96
2022-08-14T17:04:04.557Z,46.72
2022-08-14T17:06:42.991Z,46.45
2022-08-14T17:09:43.515Z,46.58
2022-08-14T17:12:36.702Z,46.70
2022-08-14T17:15:10.052Z,47.29
2022-08-14T17:17:40.267Z,47.86
2022-08-14T17:20:33.889Z,47.29
2022-08-14T17:22:58.016Z,47.39
2022-08-14T17:25:32.192Z,48.36
2022-08-14T17:28:51.065Z,48.91
2022-08-14T17:31:06.177Z,50.06
2022-08-14T17:33:40.506Z,50.21
2022-08-14T17:36:20.758Z,48.56
2022-08-14T17:39:17.166Z,50.19
2022-08-14T17:42:01.927Z,51.62
2022-08-14T17:44:34.302Z,50.55
2022-08-14T17:47:12.123Z,52.52
2022-08-14T17:49:51.792Z,53.15
2022-08-14T17:52:34.558Z,53.13
2022-08-14T17:55:05.093Z,54.25
2022-08-14T17:57:35.635Z,54.97
2022-08-14T18:00:12.952Z,55.98
2022-08-14T18:02:41.771Z,56.93
2022-08-14T18:05:18.057Z,57.10
2022-08-14T18:08:32.319Z,57.96
2022-08-14T18:10:56.204Z,57.96
2022-08-14T18:13:49.649Z,58.79
2022-08-14T18:16:19.620Z,58.53
2022-08-14T18:18:48.185Z,58.91
2022-08-14T18:21:42.048Z,59.75
2022-08-14T18:24:01.845Z,59.89
2022-08-14T18:26:36.041Z,60.74
2022-08-14T18:29:07.635Z,61.25
2022-08-14T18:31:43.984Z,62.25
2022-08-14T18:34:30.615Z,62.79
2022-08-14T18:37:09.554Z,62.76
2022-08-14T18:40:02.353Z,63.20
2022-08-14T18:42:33.142Z,63.56
2022-08-14T18:45:01.690Z,62.99
2022-08-14T18:47:32.693Z,63.32
2022-08-14T18:50:27.734Z,63.71
2022-08-14T18:53:07.281Z,63.06
2022-08-14T18:55:33.799Z,63.88
2022-08-14T18:58:00.550Z,64.64
2022-08-14T19:00:32.873Z,64.97
2022-08-14T19:03:03.570Z,64.88
2022-08-14T19:05:53.445Z,64.54
2022-08-14T19:08:25.273Z,65.30
2022-08-14T19:10:56.859Z,66.32
2022-08-14T19:13:44.726Z,65.51
2022-08-14T19:16:18.780Z,65.86
2022-08-14T19:18:53.857Z,65.55
2022-08-14T19:21:29.845Z,66.09
2022-08-14T19:24:30.346Z,65.52
2022-08-14T19:27:23.541Z,66.00
2022-08-14T19:30:20.212Z,66.54
2022-08-14T19:32:52.241Z,66.64
2022-08-14T19:35:19.754Z,67.11
2022-08-14T19:37:52.090Z,66.39
2022-08-14T19:40:39.551Z,67.72
2022-08-14T19:43:09.369Z,67.29
2022-08-14T19:45:37.524Z,67.24
2022-08-14T19:48:10.580Z,68.18
2022-08-14T19:50:41.260Z,68.09
2022-08-14T19:53:17.173Z,68.27
2022-08-14T19:55:54.767Z,68.42
2022-08-14T19:58:30.242Z,69.06
2022-08-14T20:01:01.509Z,69.80
2022-08-14T20:03:59.732Z,70.17
2022-08-14T20:06:28.271Z,70.04
2022-08-14T20:11:00.562Z,70.09
2022-08-14T20:12:02.997Z,70.23
2022-08-14T20:14:35.114Z,69.89
2022-08-14T20:17:06.054Z,69.86
2022-08-14T20:19:33.536Z,70.30
2022-08-14T20:22:37.017Z,71.15
2022-08-14T20:24:54.040Z,71.18
2022-08-14T20:27:22.371Z,70.73
2022-08-14T20:30:32.824Z,71.43
2022-08-14T20:33:07.775Z,71.70
2022-08-14T20:35:41.780Z,72.00
2022-08-14T20:38:29.116Z,72.12
2022-08-14T20:41:06.368Z,72.71
2022-08-14T20:43:39.007Z,72.71
2022-08-14T20:46:20.079Z,72.67
2022-08-14T20:49:07.918Z,73.05
2022-08-14T20:51:43.636Z,73.27
2022-08-14T20:54:34.654Z,73.40
2022-08-14T20:57:07.182Z,73.34
2022-08-14T20:59:43.635Z,73.30
2022-08-14T21:02:29.430Z,73.25
2022-08-14T21:05:16.899Z,74.13
2022-08-14T21:07:50.910Z,74.52
2022-08-14T21:10:36.139Z,74.60
2022-08-14T21:13:26.006Z,74.73
2022-08-14T21:15:58.097Z,74.67
2022-08-14T21:18:29.758Z,75.22
2022-08-14T21:20:56.986Z,75.27
2022-08-14T21:23:23.793Z,75.34
2022-08-14T21:25:50.491Z,75.11
2022-08-14T21:28:30.695Z,75.34
2022-08-14T21:31:02.635Z,75.69
2022-08-14T21:33:31.986Z,75.71
2022-08-14T21:35:59.573Z,75.77
2022-08-14T21:38:34.887Z,75.82
2022-08-14T21:41:02.699Z,76.04
2022-08-14T21:43:52.937Z,76.07
2022-08-14T21:46:19.618Z,76.50
2022-08-14T21:48:46.270Z,76.87
2022-08-14T21:51:53.782Z,76.97
2022-08-14T21:54:00.187Z,77.19
2022-08-14T21:56:39.188Z,76.78
2022-08-14T21:59:17.877Z,77.06
2022-08-14T22:01:59.690Z,77.50
2022-08-14T22:04:40.529Z,77.43
2022-08-14T22:07:12.098Z,77.45
2022-08-14T22:09:39.075Z,77.74
2022-08-14T22:12:10.233Z,77.72
2022-08-14T22:14:43.356Z,78.26
2022-08-14T22:17:13.231Z,78.40
2022-08-14T22:19:54.338Z,78.27
2022-08-14T22:22:23.550Z,78.90
2022-08-14T22:24:53.824Z,79.41
2022-08-14T22:27:26.243Z,78.76
2022-08-14T22:29:54.947Z,79.40
2022-08-14T22:32:35.436Z,78.36
2022-08-14T22:35:12.274Z,78.80
2022-08-14T22:37:39.697Z,78.54
2022-08-14T22:40:48.348Z,78.64
2022-08-14T22:43:00.354Z,79.12
2022-08-14T22:45:36.509Z,78.85
2022-08-14T22:48:11.079Z,79.17
2022-08-14T22:50:53.226Z,80.11
2022-08-14T22:53:21.823Z,80.75
2022-08-14T22:55:52.274Z,79.99
2022-08-14T22:58:19.730Z,79.45
2022-08-14T23:00:57.387Z,80.73
2022-08-14T23:03:24.592Z,80.53
2022-08-14T23:05:51.699Z,80.31
2022-08-14T23:08:59.614Z,80.15
2022-08-14T23:11:07.184Z,80.37
2022-08-14T23:13:33.874Z,80.16
2022-08-14T23:16:00.587Z,80.38
2022-08-14T23:18:29.643Z,80.70
2022-08-14T23:20:56.951Z,80.75
2022-08-14T23:23:24.273Z,80.71
2022-08-14T23:25:58.700Z,81.16
2022-08-14T23:28:56.841Z,80.83
2022-08-14T23:31:33.498Z,81.01
2022-08-14T23:34:06.611Z,81.38
2022-08-14T23:36:37.976Z,81.42
2022-08-14T23:39:20.097Z,81.25
2022-08-14T23:41:53.071Z,81.29
2022-08-14T23:44:24.175Z,81.40
2022-08-14T23:46:52.818Z,81.95
2022-08-14T23:49:24.447Z,81.54
2022-08-14T23:52:49.293Z,81.39
2022-08-14T23:54:48.408Z,82.27
2022-08-14T23:57:16.138Z,84.04
2022-08-14T23:59:54.244Z,83.72
